Aérodrome :
LOGIN :

S'inscrire | Disclaimer

   EN    FR    IT 

 










Légende :    VFR   VFR Marginal   IFR   IFR Intensif   IFR Très Intensif
Visi : 
Plafond : 
>= 8 km
>= 3000ft
5 à 8 km
1000 à 3000 ft
1500m à 5 km
500 à 1000 ft
800 à 1500m
200 à 500 ft
< 800m
< 200 ft
Symboles :   Orages  Brouillard  Fortes neiges  Fortes précipitations  Vent > 20 kt
SIGMETs :   Divers  Orages  Givrage  Turbulence  Onde Orograph.  Cendres Volcan.






- Altitude de l'aérodrome : 29 ft
- Code IATA : SVG


ENZV - Sola

DERNIER METAR :
  • 200520Z 15012KT 7000 RA FEW012 BKN020 09/08 Q1005 TEMPO 4000 RA BKN010

METARs EXPIRÉS :
  • 200450Z 15015KT 8000 RA FEW012 BKN018 09/08 Q1005 TEMPO 4000 RA BKN010
  • 200420Z 15016KT 6000 RA SCT017 BKN025 09/08 Q1005 TEMPO 4000 RA BKN010
  • 200350Z 15013KT 5000 RA BKN022 09/08 Q1006
  • 200320Z 14017KT 8000 RA BKN020 OVC031 09/07 Q1006

TAF AMD TAF ENZV
Valide du 20 à 00h jusqu'au 21 à 00h UTC


2000/2024 17015G25KT 9000 -RA FEW002 SCT008 BKN020
TEMPO 2000/2019 4000 RA BR BKN008
BECMG 2018/2020 BKN008



MET'MAP, la Météo Aéronautique d'un coup d'oeil ! - Copyright ORBIFLY Décembre 2007 - Disclaimer

ORBIFLY MET'MAP TEAM :

Programmation & Développement : Alexandra Zaïnal
Sur une idée originale de : Baudouin d'Aumeries
Assistance à la programmation : Marc-Olivier Méhu
Soutien technique & logistique : Manuel Goepfert

Contact : metmap@orbifly.com




SOURCES & CREDITS :

   NOAA